Pagrindinis puslapis
METAR-TAF:

METAR-TAF

Oro uostai :

Groningenas, Nyderlandai

platuma: 53-08N, ilguma: 006-35E, Aukštis: 4 m

Dabartinis oras

Ataskaita buvo paskelbta 23 minutes, ne 04:25 UTC
Vėjas 3 kt iš Šiaurės/Šiaurės Vakarų
Temperatūra 3°C
Drėgmė 93%
Slėgis 1031 hPa
Matomumas 10 km arba daugiau

METAR: EHGG 290425Z AUTO 34003KT 9999 NCD 03/02 Q1031 NOSIG

Laikas: 06:48 (04:48 UTC)

Prognozė

Ataskaita buvo paskelbta 5 valandos ir 53 minutes, ne 22:55 UTC
Prognozė galioja nuo 29 metu 00 UTC su 30 metu 06 UTC
Vėjas 3 kt nuo kintamojo kryptimis
Matomumas 10 km arba daugiau
nėra debesų žemiau 1500 m ir nėra kamuolinių lietaus debesų
Tikimybė 40%
nuo 29 metu 01 UTC su 29 metu 05 UTC
Matomumas: 4000 m
Sekli rūkas
Tapsmas
nuo 29 metu 11 UTC su 29 metu 14 UTC
Vėjas 12 kt iš Šiaurės/Šiaurės Rytų
Tapsmas
nuo 29 metu 21 UTC su 29 metu 24 UTC
Vėjas 6 kt iš Rytų/Šiaurės Rytų

TAF: EHGG 282255Z 2900/3006 VRB03KT CAVOK PROB40 2901/2905 4000 MIFG BECMG 2911/2914 03012KT BECMG 2921/2924 06006KT

Orai ataskaitas ir orų prognozės (METAR, TAF).

turimą stotys yra geltonos ir raudonos taškus žemėlapyje.

Perkelti pele per norėdami pamatyti stoties vardą.

Tada spustelėkite, norėdami matyti oro stebėjimo ir prognozės.

Norėdami pakeisti žemėlapį: spustelėkite ant žalios mygtukų su juodo kryžiaus žemyn,; žalią mygtuką su brūkšneliu, jei norite nutolinti; arba žalių rodyklių gretimoms žemėlapius.


METAR-TAF: